createdAt,value
2023-01-19T00:00:38.788Z,38
2023-01-19T00:01:45.922Z,39
2023-01-19T00:02:52.974Z,30
2023-01-19T00:04:00.130Z,38
2023-01-19T00:05:07.241Z,34
2023-01-19T00:06:15.275Z,34
2023-01-19T00:07:22.506Z,28
2023-01-19T00:08:29.763Z,37
2023-01-19T00:09:36.699Z,34
2023-01-19T00:10:43.879Z,40
2023-01-19T00:11:50.921Z,38
2023-01-19T00:12:58.635Z,39
2023-01-19T00:14:05.240Z,33
2023-01-19T00:15:12.277Z,35
2023-01-19T00:16:19.573Z,34
2023-01-19T00:17:26.536Z,33
2023-01-19T00:18:33.743Z,34
2023-01-19T00:19:41.095Z,25
2023-01-19T00:20:48.411Z,35
2023-01-19T00:21:55.418Z,35
2023-01-19T00:23:03.027Z,30
2023-01-19T00:24:09.814Z,30
2023-01-19T00:25:17.531Z,34
2023-01-19T00:26:24.562Z,32
2023-01-19T00:27:31.794Z,36
2023-01-19T00:28:38.831Z,26
2023-01-19T00:29:45.915Z,36
2023-01-19T00:30:53.024Z,38
2023-01-19T00:32:00.198Z,35
2023-01-19T00:33:07.443Z,31
2023-01-19T00:34:14.552Z,26
2023-01-19T00:35:21.519Z,34
2023-01-19T00:36:28.714Z,34
2023-01-19T00:37:35.847Z,32
2023-01-19T00:38:42.945Z,33
2023-01-19T00:39:50.145Z,32
2023-01-19T00:40:57.182Z,38
2023-01-19T00:42:04.337Z,32
2023-01-19T00:43:16.530Z,40
2023-01-19T00:44:23.722Z,39
2023-01-19T00:45:30.864Z,40
2023-01-19T00:46:37.851Z,36
2023-01-19T00:47:44.990Z,38
2023-01-19T00:48:52.251Z,35
2023-01-19T00:49:59.254Z,39
2023-01-19T00:51:06.403Z,36
2023-01-19T00:52:13.570Z,32
2023-01-19T00:53:20.752Z,27
2023-01-19T00:54:27.897Z,32
2023-01-19T00:55:34.967Z,32
2023-01-19T00:56:42.014Z,29
2023-01-19T00:57:49.192Z,29
2023-01-19T00:58:56.243Z,31
2023-01-19T01:00:03.503Z,30
2023-01-19T01:01:11.250Z,41
2023-01-19T01:02:18.370Z,43
2023-01-19T01:03:25.312Z,32
2023-01-19T01:04:32.504Z,33
2023-01-19T01:05:39.635Z,30
2023-01-19T01:06:46.706Z,32
2023-01-19T01:07:54.005Z,26
2023-01-19T01:09:01.734Z,33
2023-01-19T01:10:09.058Z,27
2023-01-19T01:11:19.247Z,25
2023-01-19T01:12:26.420Z,32
2023-01-19T01:13:33.848Z,31
2023-01-19T01:14:40.654Z,31
2023-01-19T01:15:47.926Z,36
2023-01-19T01:16:54.917Z,37
2023-01-19T01:18:01.923Z,37
2023-01-19T01:19:09.105Z,36
2023-01-19T01:20:16.062Z,32
2023-01-19T01:21:23.270Z,38
2023-01-19T01:22:30.490Z,35
2023-01-19T01:23:37.527Z,35
2023-01-19T01:24:44.628Z,40
2023-01-19T01:25:51.840Z,45
2023-01-19T01:26:58.834Z,47
2023-01-19T01:28:06.118Z,48
2023-01-19T01:29:13.318Z,47
2023-01-19T01:30:20.354Z,46
2023-01-19T01:31:27.473Z,48
2023-01-19T01:32:34.604Z,48
2023-01-19T01:33:41.945Z,47
2023-01-19T01:34:48.878Z,49
2023-01-19T01:35:56.028Z,49
2023-01-19T01:37:03.194Z,51
2023-01-19T01:38:10.239Z,52
2023-01-19T01:39:17.321Z,56
2023-01-19T01:40:24.507Z,50
2023-01-19T01:41:31.675Z,53
2023-01-19T01:42:38.831Z,49
2023-01-19T01:43:45.887Z,55
2023-01-19T01:44:56.047Z,62
2023-01-19T01:46:03.321Z,57
2023-01-19T01:47:10.441Z,54
2023-01-19T01:48:17.482Z,57
2023-01-19T01:49:24.658Z,57
2023-01-19T01:50:31.696Z,56
2023-01-19T01:51:38.940Z,56
2023-01-19T01:53:06.205Z,51
2023-01-19T01:53:53.113Z,61
2023-01-19T01:55:10.533Z,58
2023-01-19T01:56:17.517Z,63
2023-01-19T01:57:24.656Z,59
2023-01-19T01:58:31.811Z,54
2023-01-19T01:59:38.912Z,58
2023-01-19T02:00:46.150Z,54
2023-01-19T02:01:58.368Z,50
2023-01-19T02:03:13.572Z,53
2023-01-19T02:04:20.687Z,55
2023-01-19T02:05:27.730Z,49
2023-01-19T02:06:35.035Z,49
2023-01-19T02:07:47.058Z,52
2023-01-19T02:09:05.061Z,52
2023-01-19T02:10:17.173Z,54
2023-01-19T02:11:29.334Z,49
2023-01-19T02:12:41.518Z,43
2023-01-19T02:13:53.737Z,49
2023-01-19T02:15:00.895Z,48
2023-01-19T02:16:07.974Z,49
2023-01-19T02:17:15.247Z,46
2023-01-19T02:18:22.585Z,45
2023-01-19T02:19:32.462Z,44
2023-01-19T02:20:44.870Z,44
2023-01-19T02:21:54.811Z,48
2023-01-19T02:23:07.659Z,42
2023-01-19T02:24:14.791Z,45
2023-01-19T02:25:23.211Z,43
2023-01-19T02:26:30.614Z,46
2023-01-19T02:27:37.722Z,41
2023-01-19T02:28:44.721Z,41
2023-01-19T02:29:51.925Z,40
2023-01-19T02:30:59.124Z,40
2023-01-19T02:32:06.317Z,41
2023-01-19T02:33:13.308Z,42
2023-01-19T02:34:20.512Z,42
2023-01-19T02:35:27.557Z,45
2023-01-19T02:36:34.758Z,42
2023-01-19T02:37:44.932Z,40
2023-01-19T02:38:51.970Z,43
2023-01-19T02:39:59.239Z,40
2023-01-19T02:41:06.313Z,39
2023-01-19T02:42:13.409Z,43
2023-01-19T02:43:30.787Z,47
2023-01-19T02:44:38.047Z,36
2023-01-19T02:45:45.020Z,42
2023-01-19T02:46:52.129Z,42
2023-01-19T02:47:59.186Z,45
2023-01-19T02:49:06.365Z,46
2023-01-19T02:50:13.591Z,38
2023-01-19T02:51:30.924Z,42
2023-01-19T02:52:37.998Z,41
2023-01-19T02:53:45.029Z,40
2023-01-19T02:54:57.245Z,52
2023-01-19T02:56:12.105Z,55
2023-01-19T02:57:27.267Z,48
2023-01-19T02:58:44.615Z,48
2023-01-19T02:59:59.836Z,46
2023-01-19T03:01:10.098Z,51
2023-01-19T03:02:22.335Z,52
2023-01-19T03:03:37.690Z,56
2023-01-19T03:04:50.239Z,54
2023-01-19T03:06:02.670Z,71
2023-01-19T03:07:20.465Z,57
2023-01-19T03:08:27.422Z,57
2023-01-19T03:09:37.693Z,65
2023-01-19T03:10:52.789Z,61
2023-01-19T03:11:59.851Z,65
2023-01-19T03:13:13.110Z,75
2023-01-19T03:14:22.782Z,71
2023-01-19T03:15:29.912Z,74
2023-01-19T03:16:43.176Z,72
2023-01-19T03:17:55.429Z,71
2023-01-19T03:19:02.937Z,70
2023-01-19T03:20:15.181Z,70
2023-01-19T03:21:27.364Z,65
2023-01-19T03:22:34.538Z,68
2023-01-19T03:23:41.674Z,66
2023-01-19T03:24:48.847Z,65
2023-01-19T03:25:55.945Z,65
2023-01-19T03:27:03.156Z,65
2023-01-19T03:28:10.252Z,67
2023-01-19T03:29:17.233Z,60
2023-01-19T03:30:24.378Z,62
2023-01-19T03:31:31.580Z,65
2023-01-19T03:32:38.710Z,62
2023-01-19T03:33:48.414Z,56
2023-01-19T03:34:55.523Z,52
2023-01-19T03:36:02.558Z,52
2023-01-19T03:37:12.811Z,57
2023-01-19T03:38:19.885Z,58
2023-01-19T03:39:26.995Z,54
2023-01-19T03:40:34.160Z,47
2023-01-19T03:41:41.362Z,60
2023-01-19T03:42:48.353Z,56
2023-01-19T03:43:55.750Z,57
2023-01-19T03:45:02.623Z,55
2023-01-19T03:46:09.729Z,51
2023-01-19T03:47:17.013Z,54
2023-01-19T03:48:24.087Z,54
2023-01-19T03:49:31.266Z,54
2023-01-19T03:50:38.235Z,53
2023-01-19T03:51:45.417Z,60
2023-01-19T03:52:52.568Z,58
2023-01-19T03:54:04.794Z,54
2023-01-19T03:55:11.948Z,57
2023-01-19T03:56:19.139Z,54
2023-01-19T03:57:26.197Z,56
2023-01-19T03:58:33.357Z,52
2023-01-19T03:59:40.445Z,54
2023-01-19T04:00:47.475Z,52
2023-01-19T04:01:54.771Z,56
2023-01-19T04:03:02.353Z,48
2023-01-19T04:04:08.951Z,50
2023-01-19T04:05:16.093Z,52
2023-01-19T04:06:23.398Z,46
2023-01-19T04:07:30.881Z,54
2023-01-19T04:08:38.048Z,44
2023-01-19T04:09:45.177Z,52
2023-01-19T04:10:52.530Z,49
2023-01-19T04:12:00.037Z,45
2023-01-19T04:13:07.481Z,50
2023-01-19T04:14:14.619Z,50
2023-01-19T04:15:21.754Z,49
2023-01-19T04:16:29.011Z,52
2023-01-19T04:17:36.003Z,52
2023-01-19T04:18:43.202Z,46
2023-01-19T04:19:50.181Z,55
2023-01-19T04:20:57.302Z,52
2023-01-19T04:22:04.525Z,48
2023-01-19T04:23:11.816Z,47
2023-01-19T04:24:19.455Z,44
2023-01-19T04:25:26.630Z,44
2023-01-19T04:26:33.549Z,45
2023-01-19T04:27:40.703Z,50
2023-01-19T04:28:47.902Z,46
2023-01-19T04:29:55.073Z,47
2023-01-19T04:31:02.086Z,49
2023-01-19T04:32:09.245Z,48
2023-01-19T04:33:19.408Z,51
2023-01-19T04:34:26.549Z,52
2023-01-19T04:35:33.724Z,48
2023-01-19T04:36:40.880Z,48
2023-01-19T04:37:47.945Z,52
2023-01-19T04:38:55.088Z,51
2023-01-19T04:40:02.179Z,60
2023-01-19T04:41:09.357Z,61
2023-01-19T04:42:16.546Z,64
2023-01-19T04:43:23.648Z,67
2023-01-19T04:44:30.723Z,60
2023-01-19T04:45:37.919Z,66
2023-01-19T04:46:44.971Z,68
2023-01-19T04:47:52.163Z,60
2023-01-19T04:48:59.315Z,52
2023-01-19T04:50:06.508Z,64
2023-01-19T04:51:14.101Z,64
2023-01-19T04:52:21.093Z,60
2023-01-19T04:53:28.332Z,66
2023-01-19T04:54:35.509Z,65
2023-01-19T04:55:42.628Z,59
2023-01-19T04:56:49.950Z,59
2023-01-19T04:57:57.356Z,64
2023-01-19T04:59:04.434Z,66
2023-01-19T05:00:11.531Z,62
2023-01-19T05:01:18.710Z,72
2023-01-19T05:02:25.838Z,69
2023-01-19T05:03:33.129Z,72
2023-01-19T05:04:40.188Z,79
2023-01-19T05:05:47.177Z,75
2023-01-19T05:06:54.354Z,78
2023-01-19T05:08:01.454Z,76
2023-01-19T05:09:08.748Z,71
2023-01-19T05:10:15.840Z,74
2023-01-19T05:11:22.823Z,76
2023-01-19T05:12:29.991Z,73
2023-01-19T05:13:37.080Z,78
2023-01-19T05:14:44.220Z,79
2023-01-19T05:15:51.554Z,80
2023-01-19T05:16:58.477Z,71
2023-01-19T05:18:05.700Z,76
2023-01-19T05:19:12.775Z,73
2023-01-19T05:20:19.856Z,78
2023-01-19T05:21:27.082Z,82
2023-01-19T05:22:34.192Z,71
2023-01-19T05:23:41.337Z,76
2023-01-19T05:24:48.436Z,79
2023-01-19T05:25:55.544Z,79
2023-01-19T05:27:02.894Z,78
2023-01-19T05:28:09.876Z,82
2023-01-19T05:29:17.224Z,83
2023-01-19T05:30:24.281Z,86
2023-01-19T05:31:31.395Z,94
2023-01-19T05:32:38.325Z,94
2023-01-19T05:33:45.533Z,99
2023-01-19T05:34:52.656Z,107
2023-01-19T05:35:59.813Z,100
2023-01-19T05:37:06.897Z,104
2023-01-19T05:38:15.614Z,121
2023-01-19T05:39:21.217Z,112
2023-01-19T05:40:28.325Z,104
2023-01-19T05:41:35.560Z,108
2023-01-19T05:42:42.600Z,118
2023-01-19T05:43:49.790Z,115
2023-01-19T05:44:56.745Z,111
2023-01-19T05:46:03.982Z,111
2023-01-19T05:47:11.084Z,110
2023-01-19T05:48:18.263Z,107
2023-01-19T05:49:25.361Z,116
2023-01-19T05:50:32.463Z,104
2023-01-19T05:51:39.653Z,111
2023-01-19T05:52:46.650Z,106
2023-01-19T05:53:53.975Z,111
2023-01-19T05:55:00.986Z,108
2023-01-19T05:56:08.096Z,112
2023-01-19T05:57:15.124Z,114
2023-01-19T05:58:22.334Z,110
2023-01-19T05:59:29.528Z,108
2023-01-19T06:00:36.731Z,113
2023-01-19T06:01:43.847Z,119
2023-01-19T06:02:50.880Z,112
2023-01-19T06:03:57.878Z,119
2023-01-19T06:05:05.052Z,108
2023-01-19T06:06:12.202Z,109
2023-01-19T06:07:19.431Z,119
2023-01-19T06:08:26.407Z,104
2023-01-19T06:09:33.551Z,115
2023-01-19T06:10:40.629Z,113
2023-01-19T06:11:47.780Z,116
2023-01-19T06:12:54.959Z,125
2023-01-19T06:14:02.204Z,112
2023-01-19T06:15:09.700Z,116
2023-01-19T06:16:16.743Z,119
2023-01-19T06:17:23.894Z,129
2023-01-19T06:18:31.015Z,125
2023-01-19T06:19:38.240Z,115
2023-01-19T06:20:45.259Z,120
2023-01-19T06:21:52.584Z,120
2023-01-19T06:22:59.936Z,122
2023-01-19T06:24:06.668Z,111
2023-01-19T06:25:13.791Z,113
2023-01-19T06:26:21.074Z,113
2023-01-19T06:27:28.220Z,120
2023-01-19T06:28:35.151Z,114
2023-01-19T06:29:42.351Z,113
2023-01-19T06:30:49.475Z,116
2023-01-19T06:31:56.619Z,120
2023-01-19T06:33:03.907Z,105
2023-01-19T06:34:10.884Z,115
2023-01-19T06:35:17.892Z,102
2023-01-19T06:36:25.159Z,108
2023-01-19T06:37:32.253Z,108
2023-01-19T06:38:39.471Z,121
2023-01-19T06:39:46.413Z,120
2023-01-19T06:40:53.721Z,125
2023-01-19T06:42:00.686Z,121
2023-01-19T06:43:07.862Z,115
2023-01-19T06:44:14.997Z,114
2023-01-19T06:45:25.315Z,110
2023-01-19T06:46:32.315Z,117
2023-01-19T06:47:39.512Z,126
2023-01-19T06:48:46.568Z,111
2023-01-19T06:49:53.632Z,124
2023-01-19T06:51:00.840Z,117
2023-01-19T06:52:08.418Z,119
2023-01-19T06:53:15.686Z,120
2023-01-19T06:54:22.775Z,112
2023-01-19T06:55:29.820Z,111
2023-01-19T06:56:36.921Z,106
2023-01-19T06:57:44.101Z,108
2023-01-19T06:58:51.207Z,99
2023-01-19T06:59:58.348Z,96
2023-01-19T07:01:05.838Z,95
2023-01-19T07:02:25.958Z,94
2023-01-19T07:03:19.723Z,102
2023-01-19T07:04:26.755Z,97
2023-01-19T07:05:33.908Z,95
2023-01-19T07:06:41.131Z,83
2023-01-19T07:07:48.160Z,82
2023-01-19T07:08:55.376Z,82
2023-01-19T07:10:02.484Z,80
2023-01-19T07:11:21.966Z,71
2023-01-19T07:12:20.701Z,82
2023-01-19T07:13:27.833Z,79
2023-01-19T07:14:35.068Z,69
2023-01-19T07:15:42.152Z,78
2023-01-19T07:16:49.222Z,90
2023-01-19T07:17:56.236Z,89
2023-01-19T07:19:03.464Z,67
2023-01-19T07:20:10.685Z,70
2023-01-19T07:21:18.318Z,76
2023-01-19T07:22:25.275Z,75
2023-01-19T07:23:32.428Z,67
2023-01-19T07:24:39.588Z,63
2023-01-19T07:25:46.640Z,64
2023-01-19T07:26:53.823Z,61
2023-01-19T07:28:01.024Z,57
2023-01-19T07:29:07.991Z,57
2023-01-19T07:30:15.124Z,57
2023-01-19T07:31:22.545Z,66
2023-01-19T07:32:29.403Z,44
2023-01-19T07:33:36.725Z,48
2023-01-19T07:34:43.809Z,49
2023-01-19T07:35:50.696Z,44
2023-01-19T07:36:57.824Z,49
2023-01-19T07:38:05.016Z,36
2023-01-19T07:39:12.228Z,29
2023-01-19T07:40:19.318Z,45
2023-01-19T07:41:26.409Z,44
2023-01-19T07:42:33.549Z,36
2023-01-19T07:43:40.660Z,36
2023-01-19T07:44:47.769Z,38
2023-01-19T07:45:55.077Z,37
2023-01-19T07:47:05.177Z,30
2023-01-19T07:48:12.270Z,33
2023-01-19T07:49:19.352Z,40
2023-01-19T07:50:26.544Z,36
2023-01-19T07:51:33.635Z,26
2023-01-19T07:52:40.659Z,25
2023-01-19T07:53:47.831Z,26
2023-01-19T07:54:55.112Z,25
2023-01-19T07:56:02.133Z,28
2023-01-19T07:57:09.276Z,28
2023-01-19T07:58:16.355Z,33
2023-01-19T07:59:23.654Z,31
2023-01-19T08:00:30.667Z,30
2023-01-19T08:01:37.876Z,32
2023-01-19T08:02:44.812Z,27
2023-01-19T08:03:52.047Z,36
2023-01-19T08:04:59.191Z,37
2023-01-19T08:06:06.278Z,34
2023-01-19T08:07:23.956Z,28
2023-01-19T08:08:34.657Z,25
2023-01-19T08:09:46.859Z,26
2023-01-19T08:10:57.037Z,31
2023-01-19T08:12:07.123Z,30
2023-01-19T08:13:16.139Z,41
2023-01-19T08:14:26.631Z,25
2023-01-19T08:15:33.860Z,29
2023-01-19T08:16:42.357Z,36
2023-01-19T08:17:51.303Z,36
2023-01-19T08:19:02.701Z,42
2023-01-19T08:20:09.724Z,38
2023-01-19T08:21:17.195Z,27
2023-01-19T08:22:25.607Z,33
2023-01-19T08:23:35.278Z,45
2023-01-19T08:24:43.188Z,41
2023-01-19T08:25:50.549Z,29
2023-01-19T08:26:58.214Z,40
2023-01-19T08:28:07.137Z,29
2023-01-19T08:29:15.030Z,33
2023-01-19T08:30:26.583Z,25
2023-01-19T08:31:35.987Z,37
2023-01-19T08:32:48.199Z,32
2023-01-19T08:34:01.832Z,25
2023-01-19T08:35:13.198Z,25
2023-01-19T08:36:22.714Z,33
2023-01-19T08:37:31.837Z,25
2023-01-19T08:38:40.841Z,29
2023-01-19T08:39:53.535Z,25
2023-01-19T08:41:05.437Z,31
2023-01-19T08:42:16.378Z,33
2023-01-19T08:43:27.857Z,38
2023-01-19T08:44:43.858Z,31
2023-01-19T08:45:48.997Z,52
2023-01-19T08:46:56.830Z,52
2023-01-19T08:48:06.426Z,38
2023-01-19T08:49:15.350Z,31
2023-01-19T08:50:25.921Z,33
2023-01-19T08:51:37.331Z,27
2023-01-19T08:52:49.828Z,39
2023-01-19T08:54:00.337Z,38
2023-01-19T08:55:09.433Z,37
2023-01-19T08:56:20.399Z,38
2023-01-19T08:57:26.486Z,36
2023-01-19T08:58:35.493Z,51
2023-01-19T08:59:46.001Z,31
2023-01-19T09:00:55.153Z,29
2023-01-19T09:02:03.928Z,36
2023-01-19T09:03:11.963Z,27
2023-01-19T09:04:20.390Z,30
2023-01-19T09:05:28.487Z,29
2023-01-19T09:06:39.055Z,30
2023-01-19T09:07:46.794Z,43
2023-01-19T09:08:55.271Z,26
2023-01-19T09:10:04.228Z,30
2023-01-19T09:11:12.285Z,61
2023-01-19T09:12:21.691Z,40
2023-01-19T09:13:31.452Z,43
2023-01-19T09:14:39.857Z,44
2023-01-19T09:15:49.325Z,49
2023-01-19T09:16:58.212Z,37
2023-01-19T09:18:05.833Z,33
2023-01-19T09:19:15.276Z,35
2023-01-19T09:20:25.520Z,43
2023-01-19T09:21:34.995Z,46
2023-01-19T09:22:44.846Z,46
2023-01-19T09:23:55.543Z,44
2023-01-19T09:25:03.990Z,40
2023-01-19T09:26:14.582Z,30
2023-01-19T09:27:25.632Z,32
2023-01-19T09:28:35.725Z,37
2023-01-19T09:29:44.983Z,45
2023-01-19T09:30:54.352Z,38
2023-01-19T09:32:01.912Z,27
2023-01-19T09:33:12.374Z,25
2023-01-19T09:34:22.623Z,36
2023-01-19T09:35:31.848Z,42
2023-01-19T09:36:40.949Z,28
2023-01-19T09:37:49.049Z,38
2023-01-19T09:38:56.115Z,25
2023-01-19T09:40:03.339Z,34
2023-01-19T09:41:10.903Z,41
2023-01-19T09:42:21.008Z,36
2023-01-19T09:43:31.200Z,29
2023-01-19T09:44:48.516Z,51
2023-01-19T09:45:57.029Z,33
2023-01-19T09:47:06.188Z,38
2023-01-19T09:48:19.749Z,28
2023-01-19T09:49:32.769Z,39
2023-01-19T09:50:40.251Z,35
2023-01-19T09:51:51.660Z,38
2023-01-19T09:53:02.467Z,31
2023-01-19T09:54:10.603Z,29
2023-01-19T09:55:30.086Z,31
2023-01-19T09:56:37.167Z,35
2023-01-19T09:57:45.149Z,40
2023-01-19T09:58:55.311Z,30
2023-01-19T10:00:04.528Z,29
2023-01-19T10:01:13.699Z,34
2023-01-19T10:02:31.803Z,30
2023-01-19T10:03:47.523Z,30
2023-01-19T10:04:56.680Z,28
2023-01-19T10:06:08.725Z,31
2023-01-19T10:07:18.184Z,40
2023-01-19T10:08:33.434Z,33
2023-01-19T10:09:44.840Z,36
2023-01-19T10:11:00.914Z,25
2023-01-19T10:12:09.941Z,31
2023-01-19T10:13:25.003Z,32
2023-01-19T10:14:40.723Z,30
2023-01-19T10:15:54.906Z,34
2023-01-19T10:17:07.404Z,30
2023-01-19T10:18:26.253Z,25
2023-01-19T10:19:39.465Z,39
2023-01-19T10:20:47.865Z,49
2023-01-19T10:21:56.334Z,45
2023-01-19T10:23:05.374Z,40
2023-01-19T10:24:20.051Z,36
2023-01-19T10:25:33.401Z,28
2023-01-19T10:26:41.189Z,31
2023-01-19T10:27:52.466Z,37
2023-01-19T10:29:02.381Z,32
2023-01-19T10:30:11.178Z,29
2023-01-19T10:31:25.138Z,33
2023-01-19T10:32:33.589Z,28
2023-01-19T10:33:42.206Z,42
2023-01-19T10:34:52.216Z,31
2023-01-19T10:36:00.318Z,32
2023-01-19T10:37:14.042Z,35
2023-01-19T10:38:24.112Z,43
2023-01-19T10:39:37.386Z,37
2023-01-19T10:40:43.351Z,38
2023-01-19T10:41:52.855Z,33
2023-01-19T10:43:01.841Z,32
2023-01-19T10:44:17.659Z,33
2023-01-19T10:45:27.974Z,28
2023-01-19T10:46:36.607Z,30
2023-01-19T10:47:51.711Z,35
2023-01-19T10:49:00.048Z,31
2023-01-19T10:50:08.727Z,31
2023-01-19T10:51:27.617Z,30
2023-01-19T10:52:37.238Z,27
2023-01-19T10:53:45.272Z,37
2023-01-19T10:55:03.231Z,32
2023-01-19T10:56:11.929Z,51
2023-01-19T10:57:19.633Z,44
2023-01-19T10:58:32.539Z,41
2023-01-19T10:59:40.506Z,32
2023-01-19T11:00:50.373Z,31
2023-01-19T11:01:59.234Z,33
2023-01-19T11:03:17.954Z,37
2023-01-19T11:04:29.411Z,27
2023-01-19T11:05:37.551Z,32
2023-01-19T11:06:47.154Z,36
2023-01-19T11:07:55.216Z,32
2023-01-19T11:09:05.237Z,29
2023-01-19T11:10:19.517Z,38
2023-01-19T11:11:38.004Z,44
2023-01-19T11:12:46.636Z,32
2023-01-19T11:14:09.623Z,35
2023-01-19T11:15:19.183Z,37
2023-01-19T11:16:31.775Z,30
2023-01-19T11:17:41.760Z,41
2023-01-19T11:18:52.280Z,42
2023-01-19T11:20:00.904Z,47
2023-01-19T11:21:10.856Z,37
2023-01-19T11:22:20.461Z,43
2023-01-19T11:23:30.077Z,33
2023-01-19T11:24:38.935Z,40
2023-01-19T11:25:47.594Z,55
2023-01-19T11:26:56.180Z,44
2023-01-19T11:28:03.904Z,30
2023-01-19T11:29:11.185Z,29
2023-01-19T11:30:26.454Z,34
2023-01-19T11:31:33.734Z,31
2023-01-19T11:32:40.769Z,35
2023-01-19T11:33:49.819Z,39
2023-01-19T11:34:55.000Z,37
2023-01-19T11:36:02.133Z,38
2023-01-19T11:37:14.435Z,48
2023-01-19T11:38:24.067Z,41
2023-01-19T11:39:31.112Z,39
2023-01-19T11:40:38.234Z,45
2023-01-19T11:41:45.467Z,40
2023-01-19T11:42:55.499Z,34
2023-01-19T11:44:02.606Z,34
2023-01-19T11:45:14.793Z,40
2023-01-19T11:46:21.991Z,40
2023-01-19T11:47:29.116Z,36
2023-01-19T11:48:36.392Z,28
2023-01-19T11:49:43.380Z,31
2023-01-19T11:50:55.594Z,37
2023-01-19T11:52:02.615Z,30
2023-01-19T11:53:17.932Z,26
2023-01-19T11:54:28.144Z,26
2023-01-19T11:55:40.325Z,25
2023-01-19T11:56:47.366Z,31
2023-01-19T11:57:54.865Z,33
2023-01-19T11:59:01.627Z,30
2023-01-19T12:00:08.739Z,41
2023-01-19T12:01:16.321Z,35
2023-01-19T12:02:26.582Z,36
2023-01-19T12:03:36.241Z,29
2023-01-19T12:04:51.418Z,31
2023-01-19T12:05:58.643Z,29
2023-01-19T12:07:05.696Z,35
2023-01-19T12:08:12.836Z,39
2023-01-19T12:09:22.871Z,30
2023-01-19T12:10:29.991Z,35
2023-01-19T12:11:40.489Z,45
2023-01-19T12:12:47.780Z,37
2023-01-19T12:13:55.264Z,33
2023-01-19T12:15:02.222Z,32
2023-01-19T12:16:11.345Z,32
2023-01-19T12:17:24.787Z,31
2023-01-19T12:18:40.359Z,28
2023-01-19T12:19:47.294Z,34
2023-01-19T12:21:02.285Z,46
2023-01-19T12:22:07.482Z,41
2023-01-19T12:23:19.498Z,35
2023-01-19T12:24:35.378Z,48
2023-01-19T12:25:45.290Z,41
2023-01-19T12:27:03.523Z,37
2023-01-19T12:28:15.818Z,39
2023-01-19T12:29:22.907Z,29
2023-01-19T12:30:30.155Z,29
2023-01-19T12:31:37.177Z,32
2023-01-19T12:32:44.243Z,39
2023-01-19T12:33:51.454Z,44
2023-01-19T12:34:58.441Z,38
2023-01-19T12:36:05.551Z,40
2023-01-19T12:37:13.758Z,28
2023-01-19T12:38:30.081Z,29
2023-01-19T12:39:47.228Z,38
2023-01-19T12:40:54.438Z,39
2023-01-19T12:42:11.663Z,35
2023-01-19T12:43:18.878Z,39
2023-01-19T12:44:25.918Z,37
2023-01-19T12:45:33.072Z,39
2023-01-19T12:46:40.362Z,33
2023-01-19T12:47:52.947Z,40
2023-01-19T12:48:59.549Z,30
2023-01-19T12:50:09.202Z,32
2023-01-19T12:51:19.457Z,41
2023-01-19T12:52:26.711Z,30
2023-01-19T12:53:36.773Z,49
2023-01-19T12:54:43.964Z,41
2023-01-19T12:56:01.632Z,35
2023-01-19T12:57:08.644Z,34
2023-01-19T12:58:21.407Z,35
2023-01-19T12:59:28.674Z,35
2023-01-19T13:00:35.726Z,38
2023-01-19T13:01:45.937Z,50
2023-01-19T13:03:03.198Z,35
2023-01-19T13:04:20.501Z,33
2023-01-19T13:05:33.526Z,43
2023-01-19T13:06:42.888Z,35
2023-01-19T13:07:52.946Z,38
2023-01-19T13:09:05.142Z,51
2023-01-19T13:10:22.506Z,44
2023-01-19T13:11:39.890Z,48
2023-01-19T13:12:47.001Z,39
2023-01-19T13:14:04.232Z,48
2023-01-19T13:15:21.503Z,43
2023-01-19T13:16:31.713Z,54
2023-01-19T13:17:38.879Z,51
2023-01-19T13:18:50.980Z,49
2023-01-19T13:20:08.319Z,49
2023-01-19T13:21:25.655Z,53
2023-01-19T13:22:37.770Z,45
2023-01-19T13:23:49.969Z,44
2023-01-19T13:24:58.271Z,63
2023-01-19T13:26:12.342Z,45
2023-01-19T13:27:19.467Z,55
2023-01-19T13:28:26.681Z,50
2023-01-19T13:29:36.350Z,45
2023-01-19T13:30:43.638Z,52
2023-01-19T13:31:56.167Z,55
2023-01-19T13:33:03.279Z,41
2023-01-19T13:34:10.334Z,46
2023-01-19T13:35:17.556Z,46
2023-01-19T13:36:24.663Z,56
2023-01-19T13:37:31.757Z,45
2023-01-19T13:38:44.484Z,49
2023-01-19T13:39:51.538Z,42
2023-01-19T13:40:58.675Z,53
2023-01-19T13:42:05.792Z,55
2023-01-19T13:43:18.010Z,47
2023-01-19T13:44:25.145Z,50
2023-01-19T13:45:32.426Z,51
2023-01-19T13:46:39.469Z,60
2023-01-19T13:47:46.521Z,49
2023-01-19T13:48:53.593Z,51
2023-01-19T13:50:01.073Z,57
2023-01-19T13:51:07.876Z,63
2023-01-19T13:52:15.066Z,61
2023-01-19T13:53:24.733Z,49
2023-01-19T13:54:32.091Z,56
2023-01-19T13:55:39.276Z,51
2023-01-19T13:56:46.492Z,58
2023-01-19T13:57:53.595Z,54
2023-01-19T13:59:00.909Z,48
2023-01-19T14:00:08.330Z,62
2023-01-19T14:01:15.553Z,56
2023-01-19T14:02:25.291Z,68
2023-01-19T14:03:32.198Z,56
2023-01-19T14:04:39.255Z,82
2023-01-19T14:05:46.494Z,61
2023-01-19T14:06:53.528Z,68
2023-01-19T14:08:00.644Z,74
2023-01-19T14:09:07.714Z,70
2023-01-19T14:10:20.529Z,65
2023-01-19T14:11:27.541Z,62
2023-01-19T14:12:36.639Z,55
2023-01-19T14:13:41.845Z,57
2023-01-19T14:14:48.829Z,64
2023-01-19T14:15:56.328Z,55
2023-01-19T14:17:03.263Z,63
2023-01-19T14:18:10.601Z,56
2023-01-19T14:19:17.881Z,51
2023-01-19T14:20:24.838Z,49
2023-01-19T14:21:32.074Z,58
2023-01-19T14:22:42.253Z,57
2023-01-19T14:23:49.494Z,62
2023-01-19T14:24:56.513Z,48
2023-01-19T14:26:03.586Z,51
2023-01-19T14:27:20.871Z,56
2023-01-19T14:28:28.011Z,54
2023-01-19T14:29:40.148Z,55
2023-01-19T14:30:47.371Z,48
2023-01-19T14:32:02.516Z,57
2023-01-19T14:33:14.692Z,52
2023-01-19T14:34:32.079Z,49
2023-01-19T14:35:43.123Z,52
2023-01-19T14:36:50.249Z,60
2023-01-19T14:37:57.589Z,48
2023-01-19T14:39:04.606Z,46
2023-01-19T14:40:11.617Z,50
2023-01-19T14:41:21.799Z,53
2023-01-19T14:42:29.032Z,49
2023-01-19T14:43:36.035Z,60
2023-01-19T14:44:48.261Z,50
2023-01-19T14:45:55.405Z,45
2023-01-19T14:47:02.490Z,34
2023-01-19T14:48:09.613Z,56
2023-01-19T14:49:16.741Z,54
2023-01-19T14:50:23.859Z,50
2023-01-19T14:51:36.106Z,45
2023-01-19T14:52:43.193Z,33
2023-01-19T14:53:56.842Z,34
2023-01-19T14:55:02.402Z,45
2023-01-19T14:56:10.077Z,56
2023-01-19T14:57:17.125Z,35
2023-01-19T14:58:25.669Z,42
2023-01-19T14:59:35.273Z,39
2023-01-19T15:00:43.121Z,40
2023-01-19T15:01:52.105Z,45
2023-01-19T15:02:59.473Z,39
2023-01-19T15:04:07.213Z,36
2023-01-19T15:05:14.184Z,40
2023-01-19T15:06:21.445Z,40
2023-01-19T15:07:28.339Z,37
2023-01-19T15:08:35.609Z,39
2023-01-19T15:09:42.730Z,41
2023-01-19T15:10:52.684Z,47
2023-01-19T15:11:59.763Z,39
2023-01-19T15:13:06.924Z,37
2023-01-19T15:14:19.157Z,33
2023-01-19T15:15:26.284Z,39
2023-01-19T15:16:33.360Z,45
2023-01-19T15:17:40.597Z,37
2023-01-19T15:18:47.590Z,38
2023-01-19T15:19:54.631Z,37
2023-01-19T15:21:02.076Z,34
2023-01-19T15:22:08.876Z,31
2023-01-19T15:23:16.076Z,47
2023-01-19T15:24:23.273Z,41
2023-01-19T15:25:30.410Z,37
2023-01-19T15:26:37.377Z,33
2023-01-19T15:27:44.519Z,32
2023-01-19T15:28:51.652Z,31
2023-01-19T15:29:58.797Z,39
2023-01-19T15:31:06.045Z,38
2023-01-19T15:32:13.023Z,49
2023-01-19T15:33:20.190Z,38
2023-01-19T15:34:27.278Z,38
2023-01-19T15:35:34.424Z,43
2023-01-19T15:36:41.575Z,32
2023-01-19T15:37:48.691Z,41
2023-01-19T15:38:55.746Z,45
2023-01-19T15:40:02.836Z,35
2023-01-19T15:41:10.453Z,31
2023-01-19T15:42:25.796Z,39
2023-01-19T15:43:32.945Z,25
2023-01-19T15:44:39.997Z,27
2023-01-19T15:45:47.073Z,34
2023-01-19T15:46:54.766Z,33
2023-01-19T15:48:01.341Z,27
2023-01-19T15:49:08.532Z,25
2023-01-19T15:50:15.549Z,31
2023-01-19T15:51:22.977Z,29
2023-01-19T15:52:29.904Z,30
2023-01-19T15:53:36.981Z,27
2023-01-19T15:54:44.223Z,38
2023-01-19T15:55:51.142Z,34
2023-01-19T15:57:00.961Z,40
2023-01-19T15:58:08.030Z,42
2023-01-19T15:59:15.121Z,42
2023-01-19T16:00:22.213Z,48
2023-01-19T16:01:29.524Z,37
2023-01-19T16:02:36.482Z,40
2023-01-19T16:09:55.201Z,40
2023-01-19T16:11:02.335Z,171
2023-01-19T16:12:12.636Z,142
2023-01-19T16:13:20.556Z,139
2023-01-19T16:14:27.882Z,132
2023-01-19T16:15:35.022Z,126
2023-01-19T16:16:43.604Z,100
2023-01-19T16:17:51.073Z,100
2023-01-19T16:18:58.613Z,95
2023-01-19T16:20:06.855Z,97
2023-01-19T16:21:14.223Z,85